Time;durP1;ratioP1;P1;durP2;ratioP2;P2;SDS_P1;SDS_P2;PMS_P1;PMS_P2;Temp;Humidity;BMP_temperature;BMP_pressure;BME280_temperature;BME280_humidity;BME280_pressure;Samples;Min_cycle;Max_cycle;Signal;HPM_P1;HPM_P2
2023/10/25 00:02:23;;;;;;;7.23;2.03;;;11.50;1.00;;;;;;5009594;28;21323;-69
2023/10/25 00:04:55;;;;;;;6.33;1.70;;;11.50;1.00;;;;;;5020045;28;20415;-69
2023/10/25 00:07:21;;;;;;;6.40;1.90;;;11.50;1.00;;;;;;5024217;28;20397;-69
2023/10/25 00:09:46;;;;;;;5.25;1.67;;;11.60;1.00;;;;;;5007772;28;20441;-69
2023/10/25 00:12:12;;;;;;;5.10;1.63;;;11.50;1.00;;;;;;5019794;28;20819;-69
2023/10/25 00:14:37;;;;;;;5.03;1.50;;;11.60;1.00;;;;;;5011153;28;20955;-69
2023/10/25 00:17:03;;;;;;;5.00;1.43;;;11.60;1.00;;;;;;5012874;28;20387;-69
2023/10/25 00:19:29;;;;;;;4.87;1.40;;;11.60;1.00;;;;;;5029493;28;20764;-70
2023/10/25 00:21:54;;;;;;;4.60;1.30;;;11.60;1.00;;;;;;5033032;28;20704;-69
2023/10/25 00:24:21;;;;;;;5.20;1.50;;;11.50;1.00;;;;;;5032516;28;20399;-69
2023/10/25 00:26:46;;;;;;;5.32;1.45;;;11.40;1.00;;;;;;5032377;28;20926;-69
2023/10/25 00:29:12;;;;;;;5.23;1.60;;;11.40;1.00;;;;;;5028148;28;20491;-69
2023/10/25 00:31:37;;;;;;;6.40;2.10;;;11.40;1.00;;;;;;5013040;28;20393;-69
2023/10/25 00:34:03;;;;;;;4.70;1.40;;;11.40;1.00;;;;;;5013555;28;20416;-69
2023/10/25 00:36:29;;;;;;;5.60;1.40;;;11.50;1.00;;;;;;5012956;28;20488;-70
2023/10/25 00:38:55;;;;;;;5.50;1.80;;;11.50;1.00;;;;;;5014631;28;20410;-70
2023/10/25 00:41:20;;;;;;;4.45;1.30;;;11.50;1.00;;;;;;5027866;28;21086;-70
2023/10/25 00:43:46;;;;;;;5.73;1.63;;;11.50;1.00;;;;;;5026243;28;20451;-70
2023/10/25 00:46:19;;;;;;;5.63;1.60;;;11.60;1.00;;;;;;5012630;28;20931;-70
2023/10/25 00:48:46;;;;;;;6.20;1.83;;;11.60;1.00;;;;;;5018896;28;20413;-70
2023/10/25 00:51:14;;;;;;;4.50;1.50;;;11.70;99.90;;;;;;5032284;28;20387;-70
2023/10/25 00:53:49;;;;;;;5.20;1.50;;;11.70;99.90;;;;;;5015869;28;20425;-70
2023/10/25 00:56:16;;;;;;;5.15;1.60;;;11.80;99.90;;;;;;5027837;28;20497;-70
2023/10/25 00:58:51;;;;;;;7.20;1.60;;;11.80;99.90;;;;;;5031736;28;20510;-70
2023/10/25 01:01:18;;;;;;;4.33;1.17;;;11.90;99.90;;;;;;5020496;28;20919;-70
2023/10/25 01:03:44;;;;;;;4.70;1.40;;;11.80;99.90;;;;;;5012147;28;20404;-68
2023/10/25 01:06:09;;;;;;;5.20;1.52;;;11.80;99.90;;;;;;5016297;28;20452;-69
2023/10/25 01:08:35;;;;;;;5.53;1.50;;;11.80;99.90;;;;;;5032036;28;20406;-69
2023/10/25 01:11:01;;;;;;;5.03;1.42;;;11.70;99.90;;;;;;5032322;28;20415;-69
2023/10/25 01:13:27;;;;;;;5.72;1.83;;;11.70;1.00;;;;;;5032246;28;20784;-69
2023/10/25 01:15:52;;;;;;;5.85;1.80;;;11.80;99.90;;;;;;5032067;28;20487;-69
2023/10/25 01:18:18;;;;;;;4.80;1.40;;;11.80;99.90;;;;;;5027520;28;20388;-69
2023/10/25 01:20:46;;;;;;;7.60;1.73;;;11.80;99.90;;;;;;5011681;28;20392;-69
2023/10/25 01:23:12;;;;;;;7.38;1.73;;;11.80;99.90;;;;;;5012141;28;20381;-69
2023/10/25 01:25:38;;;;;;;4.78;1.30;;;11.80;99.90;;;;;;5012125;28;20436;-69
2023/10/25 01:28:04;;;;;;;5.55;1.60;;;11.80;99.90;;;;;;5012359;28;20836;-69
2023/10/25 01:30:30;;;;;;;5.43;2.17;;;11.80;99.90;;;;;;5012244;28;20399;-69
2023/10/25 01:32:56;;;;;;;4.70;1.83;;;11.70;99.90;;;;;;5011555;28;20389;-69
2023/10/25 01:35:21;;;;;;;5.00;1.85;;;11.70;99.90;;;;;;5011216;28;20397;-69
2023/10/25 01:37:47;;;;;;;5.70;1.70;;;11.60;99.90;;;;;;5011767;28;20469;-69
2023/10/25 01:40:14;;;;;;;6.10;2.70;;;11.50;99.90;;;;;;5011587;28;20400;-70
2023/10/25 01:42:40;;;;;;;6.90;2.20;;;11.50;99.90;;;;;;5011455;28;20397;-70
2023/10/25 01:45:06;;;;;;;7.27;1.57;;;11.40;1.00;;;;;;5011537;28;20969;-70
2023/10/25 01:47:31;;;;;;;4.90;1.45;;;11.40;1.00;;;;;;5011865;28;20391;-70
2023/10/25 01:49:57;;;;;;;6.23;1.50;;;11.30;1.00;;;;;;5011140;28;20401;-70
2023/10/25 01:52:23;;;;;;;5.78;2.03;;;11.30;1.00;;;;;;5011700;28;20439;-70
2023/10/25 01:54:50;;;;;;;5.10;1.50;;;11.20;1.00;;;;;;5010043;28;20433;-70
2023/10/25 01:57:16;;;;;;;5.90;1.30;;;11.30;1.00;;;;;;5011473;28;20391;-69
2023/10/25 01:59:43;;;;;;;4.85;1.63;;;11.20;1.00;;;;;;5011359;28;20516;-68
2023/10/25 02:02:10;;;;;;;5.22;2.00;;;11.20;99.90;;;;;;5010656;28;20502;-69
2023/10/25 02:04:35;;;;;;;5.35;1.70;;;11.00;99.90;;;;;;5024560;28;20406;-69
2023/10/25 02:07:02;;;;;;;4.50;1.33;;;11.00;99.90;;;;;;5031472;28;20490;-70
2023/10/25 02:09:28;;;;;;;4.43;1.10;;;11.00;99.90;;;;;;5021311;28;20465;-70
2023/10/25 02:11:53;;;;;;;5.75;1.77;;;10.90;1.00;;;;;;5011315;28;20396;-70
2023/10/25 02:14:19;;;;;;;4.77;1.50;;;10.90;1.00;;;;;;5009987;28;20396;-70
2023/10/25 02:16:44;;;;;;;5.43;1.77;;;10.90;1.00;;;;;;5009304;28;20444;-70
2023/10/25 02:19:10;;;;;;;5.30;1.40;;;11.00;99.90;;;;;;5009792;28;20389;-70
2023/10/25 02:21:35;;;;;;;4.87;1.07;;;11.10;99.90;;;;;;5020334;28;20450;-70
2023/10/25 02:24:05;;;;;;;6.55;1.60;;;11.20;99.90;;;;;;5031257;28;20449;-70
2023/10/25 02:26:31;;;;;;;5.22;1.40;;;11.20;99.90;;;;;;5031435;28;20418;-69
2023/10/25 02:28:59;;;;;;;4.97;1.52;;;11.20;99.90;;;;;;5030792;28;20426;-70
2023/10/25 02:31:25;;;;;;;4.90;1.45;;;11.10;99.90;;;;;;5030516;28;20406;-69
2023/10/25 02:33:50;;;;;;;5.25;1.70;;;11.00;99.90;;;;;;5030561;28;20390;-69
2023/10/25 02:36:16;;;;;;;5.90;1.40;;;10.90;99.90;;;;;;5030337;28;20485;-69
2023/10/25 02:38:41;;;;;;;5.55;1.70;;;10.90;99.90;;;;;;5030624;28;20441;-69
2023/10/25 02:41:07;;;;;;;5.47;1.60;;;10.80;99.90;;;;;;5030756;28;20813;-70
2023/10/25 02:43:34;;;;;;;5.50;1.70;;;10.70;99.90;;;;;;5030341;28;20385;-69
2023/10/25 02:46:08;;;;;;;5.97;2.10;;;10.80;1.00;;;;;;5029217;28;20415;-70
2023/10/25 02:48:34;;;;;;;6.30;1.90;;;10.90;99.90;;;;;;5030131;28;20435;-70
2023/10/25 02:51:00;;;;;;;4.75;1.50;;;10.80;99.90;;;;;;5030994;28;20415;-70
2023/10/25 02:53:25;;;;;;;5.90;2.07;;;11.00;1.00;;;;;;5030092;28;20395;-70
2023/10/25 02:55:58;;;;;;;6.43;1.80;;;11.10;99.90;;;;;;5030115;28;20466;-70
2023/10/25 02:58:23;;;;;;;7.05;2.15;;;11.10;99.90;;;;;;5018785;28;20392;-70
2023/10/25 03:00:49;;;;;;;5.53;1.90;;;11.20;99.90;;;;;;5010711;28;20455;-70
2023/10/25 03:03:14;;;;;;;5.40;1.50;;;11.20;99.90;;;;;;5011039;28;20401;-70
2023/10/25 03:05:40;;;;;;;5.65;1.50;;;11.20;99.90;;;;;;5024330;28;20440;-70
2023/10/25 03:08:05;;;;;;;5.00;1.30;;;11.20;99.90;;;;;;5010013;28;20415;-70
2023/10/25 03:10:31;;;;;;;5.23;1.90;;;11.10;99.90;;;;;;5014580;28;20476;-69
2023/10/25 03:12:56;;;;;;;5.68;1.80;;;11.10;99.90;;;;;;5023890;28;20399;-69
2023/10/25 03:15:22;;;;;;;4.97;1.40;;;11.00;99.90;;;;;;5020735;28;20435;-70
2023/10/25 03:17:47;;;;;;;5.03;1.63;;;11.00;99.90;;;;;;5011461;28;20742;-70
2023/10/25 03:20:14;;;;;;;6.20;1.63;;;11.00;99.90;;;;;;5009941;28;20424;-70
2023/10/25 03:22:40;;;;;;;5.13;1.52;;;11.00;1.00;;;;;;5008669;28;20405;-70
2023/10/25 03:25:06;;;;;;;5.50;2.10;;;11.10;99.90;;;;;;5026771;28;20431;-70
2023/10/25 03:27:31;;;;;;;4.90;1.30;;;11.10;99.90;;;;;;5030156;28;20906;-70
2023/10/25 03:29:57;;;;;;;6.28;1.88;;;11.00;99.90;;;;;;5028898;28;20387;-70
2023/10/25 03:32:22;;;;;;;6.23;2.20;;;11.00;1.00;;;;;;5029553;28;20775;-70
2023/10/25 03:34:51;;;;;;;6.37;2.10;;;10.90;1.00;;;;;;5011516;28;20414;-70
2023/10/25 03:37:17;;;;;;;7.22;2.75;;;10.90;99.90;;;;;;5009754;28;20407;-70
2023/10/25 03:39:42;;;;;;;5.17;1.50;;;10.90;1.00;;;;;;5010109;28;20880;-70
2023/10/25 03:42:10;;;;;;;8.43;2.70;;;11.00;1.00;;;;;;5022094;28;20761;-70
2023/10/25 03:44:36;;;;;;;5.00;1.97;;;11.00;1.00;;;;;;5018485;28;20445;-70
2023/10/25 03:47:01;;;;;;;8.20;2.60;;;11.00;99.90;;;;;;5018848;28;20409;-70
2023/10/25 03:49:27;;;;;;;6.27;2.17;;;11.00;99.90;;;;;;5017676;28;20912;-70
2023/10/25 03:51:52;;;;;;;7.70;2.30;;;11.00;1.00;;;;;;5019453;28;20428;-70
2023/10/25 03:54:18;;;;;;;7.03;2.85;;;10.90;99.90;;;;;;5011010;28;20431;-70
2023/10/25 03:56:43;;;;;;;5.40;1.90;;;10.90;99.90;;;;;;5013473;28;20431;-70
2023/10/25 03:59:09;;;;;;;7.47;3.07;;;10.80;99.90;;;;;;5011230;28;20966;-70
2023/10/25 04:01:35;;;;;;;6.20;2.42;;;10.80;1.00;;;;;;5014744;28;20523;-70
2023/10/25 04:04:00;;;;;;;5.43;2.47;;;10.80;1.00;;;;;;5013262;28;20427;-70
2023/10/25 04:06:26;;;;;;;5.03;1.80;;;10.70;99.90;;;;;;5027971;28;20424;-70
2023/10/25 04:08:51;;;;;;;5.93;2.30;;;10.70;1.00;;;;;;5017227;28;20419;-70
2023/10/25 04:11:17;;;;;;;6.43;2.93;;;10.60;1.00;;;;;;5020901;28;20394;-70
2023/10/25 04:13:43;;;;;;;6.82;2.35;;;10.50;1.00;;;;;;5025432;28;20410;-68
2023/10/25 04:16:09;;;;;;;7.63;2.75;;;10.50;1.00;;;;;;5015395;28;20408;-69
2023/10/25 04:18:35;;;;;;;6.00;2.27;;;10.40;1.00;;;;;;5029842;28;20490;-69
2023/10/25 04:21:02;;;;;;;6.30;2.20;;;10.50;1.00;;;;;;5032477;28;20937;-69
2023/10/25 04:23:30;;;;;;;7.38;3.00;;;10.40;1.00;;;;;;5023090;28;20418;-69
2023/10/25 04:26:07;;;;;;;8.20;3.03;;;10.50;1.00;;;;;;5024861;28;20519;-69
2023/10/25 04:28:33;;;;;;;5.70;2.13;;;10.40;1.00;;;;;;5022714;28;20415;-69
2023/10/25 04:30:59;;;;;;;5.85;2.53;;;10.50;1.00;;;;;;5021032;28;20391;-70
2023/10/25 04:33:25;;;;;;;5.83;2.60;;;10.40;1.00;;;;;;5032618;28;20752;-69
2023/10/25 04:35:51;;;;;;;6.43;2.15;;;10.40;1.00;;;;;;5014723;28;20511;-70
2023/10/25 04:38:16;;;;;;;5.93;2.13;;;10.40;1.00;;;;;;5026050;28;20407;-70
2023/10/25 04:40:46;;;;;;;6.20;2.38;;;10.40;1.00;;;;;;5028260;28;20388;-70
2023/10/25 04:43:12;;;;;;;5.70;2.10;;;10.40;1.00;;;;;;5027648;28;20426;-70
2023/10/25 04:45:37;;;;;;;7.50;2.30;;;10.30;99.90;;;;;;5031031;28;20472;-69
2023/10/25 04:48:03;;;;;;;6.30;2.43;;;10.30;99.90;;;;;;5029628;28;20863;-70
2023/10/25 04:50:35;;;;;;;6.20;2.47;;;10.30;99.90;;;;;;5023286;28;20758;-70
2023/10/25 04:53:04;;;;;;;7.30;2.00;;;10.20;1.00;;;;;;5013185;28;20388;-70
2023/10/25 04:55:30;;;;;;;9.60;2.55;;;10.20;1.00;;;;;;5026847;28;20415;-70
2023/10/25 04:57:56;;;;;;;6.53;1.97;;;10.20;1.00;;;;;;5032519;28;20409;-70
2023/10/25 05:00:23;;;;;;;6.70;2.72;;;10.20;1.00;;;;;;5032173;28;20446;-70
2023/10/25 05:02:49;;;;;;;8.25;2.22;;;10.20;1.00;;;;;;5030431;28;20965;-70
2023/10/25 05:05:14;;;;;;;7.13;2.13;;;10.20;1.00;;;;;;5014133;28;20424;-70
2023/10/25 05:07:40;;;;;;;7.30;3.00;;;10.20;99.90;;;;;;5012296;28;20393;-70
2023/10/25 05:10:08;;;;;;;15.63;2.83;;;10.10;99.90;;;;;;5018508;28;20510;-70
2023/10/25 05:12:41;;;;;;;8.38;2.90;;;10.00;99.90;;;;;;5032520;28;20401;-70
2023/10/25 05:15:10;;;;;;;6.70;2.50;;;9.90;1.00;;;;;;5032049;28;20414;-70
2023/10/25 05:17:37;;;;;;;6.50;2.30;;;9.80;1.00;;;;;;5032096;28;20390;-69
2023/10/25 05:20:07;;;;;;;6.80;1.83;;;9.70;1.00;;;;;;5031230;28;20403;-70
2023/10/25 05:22:37;;;;;;;6.97;2.40;;;9.60;1.00;;;;;;5032983;28;20519;-71
2023/10/25 05:25:04;;;;;;;6.85;2.60;;;9.60;1.00;;;;;;5026903;28;21063;-70
2023/10/25 05:27:32;;;;;;;7.75;3.20;;;9.60;1.00;;;;;;5032598;28;20887;-69
2023/10/25 05:29:59;;;;;;;9.03;3.50;;;9.60;1.00;;;;;;5026591;28;20474;-69
2023/10/25 05:32:28;;;;;;;11.63;3.88;;;9.60;1.00;;;;;;5020599;28;20925;-70
2023/10/25 05:34:55;;;;;;;8.27;3.47;;;9.60;1.00;;;;;;5029729;28;20407;-69
2023/10/25 05:37:21;;;;;;;10.43;4.00;;;9.60;1.00;;;;;;5018539;28;20400;-69
2023/10/25 05:39:47;;;;;;;8.93;3.03;;;9.50;1.00;;;;;;5018686;28;20418;-69
2023/10/25 05:42:17;;;;;;;7.15;3.10;;;9.60;1.00;;;;;;5026836;28;20391;-69
2023/10/25 05:44:44;;;;;;;8.50;3.83;;;9.50;1.00;;;;;;5021654;28;20744;-69
2023/10/25 05:47:09;;;;;;;13.95;2.25;;;9.60;1.00;;;;;;5031574;28;20383;-69
2023/10/25 05:49:35;;;;;;;6.90;2.65;;;9.50;1.00;;;;;;5031420;28;20421;-70
2023/10/25 05:52:01;;;;;;;8.70;2.60;;;9.60;1.00;;;;;;5030789;28;20406;-70
2023/10/25 05:54:27;;;;;;;7.78;2.47;;;9.60;1.00;;;;;;5029370;28;20415;-70
2023/10/25 05:56:53;;;;;;;7.70;2.78;;;9.60;1.00;;;;;;5030295;28;20450;-70
2023/10/25 05:59:18;;;;;;;6.47;2.23;;;9.70;1.00;;;;;;5027992;28;20536;-70
2023/10/25 06:01:52;;;;;;;7.10;2.40;;;9.70;1.00;;;;;;5015638;28;20397;-70
2023/10/25 06:04:19;;;;;;;5.68;2.35;;;9.70;1.00;;;;;;5014839;28;20403;-69
2023/10/25 06:06:46;;;;;;;5.00;1.63;;;9.70;1.00;;;;;;5022991;28;20811;-70
2023/10/25 06:09:12;;;;;;;6.60;2.90;;;9.70;99.90;;;;;;5011703;28;20488;-70
2023/10/25 06:11:39;;;;;;;6.63;2.13;;;9.60;99.90;;;;;;5006983;28;20419;-69
2023/10/25 06:14:08;;;;;;;6.28;2.70;;;9.60;1.00;;;;;;5008708;28;20385;-69
2023/10/25 06:16:34;;;;;;;5.43;1.75;;;9.70;1.00;;;;;;5009142;28;20904;-69
2023/10/25 06:19:01;;;;;;;7.35;2.22;;;9.80;99.90;;;;;;5009070;28;20442;-69
2023/10/25 06:21:26;;;;;;;7.15;2.38;;;9.80;99.90;;;;;;5010046;28;20784;-69
2023/10/25 06:23:52;;;;;;;7.20;2.20;;;9.70;99.90;;;;;;5008562;28;20450;-69
2023/10/25 06:26:20;;;;;;;6.32;2.10;;;9.70;99.90;;;;;;5008762;28;20855;-68
2023/10/25 06:28:46;;;;;;;5.60;1.55;;;9.80;99.90;;;;;;5007206;28;20473;-68
2023/10/25 06:31:15;;;;;;;6.20;1.80;;;9.80;99.90;;;;;;5007939;28;20409;-69
2023/10/25 06:33:41;;;;;;;8.02;2.50;;;9.80;99.90;;;;;;5007293;28;20486;-69
2023/10/25 06:36:07;;;;;;;5.37;1.77;;;9.80;99.90;;;;;;5016249;28;20401;-69
2023/10/25 06:38:34;;;;;;;6.20;2.10;;;9.90;99.90;;;;;;5018135;28;20385;-69
2023/10/25 06:41:00;;;;;;;7.88;1.77;;;9.90;99.90;;;;;;5010922;28;20408;-69
2023/10/25 06:43:28;;;;;;;6.00;1.67;;;10.00;99.90;;;;;;5010755;28;20389;-69
2023/10/25 06:45:54;;;;;;;5.70;1.90;;;10.00;99.90;;;;;;5009788;28;21336;-69
2023/10/25 06:48:20;;;;;;;7.22;1.70;;;10.10;99.90;;;;;;5010090;28;20385;-69
2023/10/25 06:50:46;;;;;;;7.07;3.10;;;10.10;99.90;;;;;;5009141;28;20415;-68
2023/10/25 06:53:12;;;;;;;7.25;2.28;;;10.20;99.90;;;;;;5009545;28;20432;-69
2023/10/25 06:55:38;;;;;;;6.33;2.23;;;10.50;1.00;;;;;;5009035;28;20425;-69
2023/10/25 06:58:04;;;;;;;7.10;3.05;;;11.30;1.00;;;;;;5010057;28;20958;-69
2023/10/25 07:00:30;;;;;;;7.60;2.25;;;12.00;1.00;;;;;;5010876;28;20801;-70
2023/10/25 07:03:01;;;;;;;8.40;3.10;;;;;;;;;;5010263;28;20425;-69
2023/10/25 07:05:29;;;;;;;6.28;2.60;;;14.00;10.40;;;;;;5010297;28;20789;-70
2023/10/25 07:07:55;;;;;;;6.80;3.20;;;15.60;99.90;;;;;;5009757;28;20427;-70
2023/10/25 07:10:21;;;;;;;7.03;2.80;;;17.10;1.00;;;;;;5010176;28;20818;-70
2023/10/25 07:12:47;;;;;;;6.20;2.50;;;18.30;1.00;;;;;;5008613;28;20433;-70
2023/10/25 07:15:13;;;;;;;7.32;2.50;;;19.30;99.90;;;;;;5025089;28;20439;-70
2023/10/25 07:17:39;;;;;;;7.07;2.55;;;20.20;99.90;;;;;;5010068;28;20908;-73
2023/10/25 07:20:06;;;;;;;6.32;2.38;;;20.70;99.90;;;;;;5008443;28;20400;-70
2023/10/25 07:22:32;;;;;;;7.90;2.10;;;;;;;;;;5009758;28;20401;-70
2023/10/25 07:24:58;;;;;;;7.05;2.20;;;;;;;;;;5009863;28;20405;-70
2023/10/25 07:27:24;;;;;;;5.97;2.05;;;22.00;99.90;;;;;;5009763;28;20397;-70
2023/10/25 07:29:50;;;;;;;7.17;1.90;;;21.30;99.90;;;;;;5009638;28;20455;-70
2023/10/25 07:32:15;;;;;;;8.40;2.78;;;20.00;99.90;;;;;;5009769;28;20384;-70
2023/10/25 07:34:41;;;;;;;7.28;2.17;;;18.70;99.90;;;;;;5008185;28;20412;-69
2023/10/25 07:37:07;;;;;;;8.07;2.17;;;18.00;99.90;;;;;;5009953;28;20487;-70
2023/10/25 07:39:33;;;;;;;8.45;2.40;;;18.10;99.90;;;;;;5010265;28;20952;-70
2023/10/25 07:41:59;;;;;;;8.00;2.40;;;18.60;99.90;;;;;;5010283;28;20892;-70
2023/10/25 07:44:25;;;;;;;9.57;2.60;;;19.30;99.90;;;;;;5008508;28;20917;-71
2023/10/25 07:46:52;;;;;;;6.78;2.35;;;19.70;99.90;;;;;;5009609;28;20521;-70
2023/10/25 07:49:17;;;;;;;7.90;2.50;;;20.00;99.90;;;;;;5009851;28;20917;-70
2023/10/25 07:51:43;;;;;;;6.60;2.30;;;20.00;99.90;;;;;;5009558;28;20392;-70
2023/10/25 07:54:09;;;;;;;6.90;2.40;;;19.20;99.90;;;;;;5009341;28;20415;-69
2023/10/25 07:56:35;;;;;;;6.60;2.17;;;18.00;99.90;;;;;;5008418;28;20396;-69
2023/10/25 07:59:01;;;;;;;5.90;2.30;;;16.90;99.90;;;;;;5009119;28;20404;-70
2023/10/25 08:01:29;;;;;;;7.00;2.20;;;16.20;99.90;;;;;;5010834;28;20401;-69
2023/10/25 08:03:55;;;;;;;5.90;1.90;;;15.70;99.90;;;;;;5011000;28;20456;-69
2023/10/25 08:06:21;;;;;;;6.00;2.00;;;15.50;99.90;;;;;;5010967;28;20606;-69
2023/10/25 08:08:49;;;;;;;6.55;2.45;;;15.70;99.90;;;;;;5011513;28;20458;-70
2023/10/25 08:11:14;;;;;;;6.47;2.28;;;16.50;99.90;;;;;;5011095;28;20392;-69
2023/10/25 08:13:42;;;;;;;6.20;1.90;;;17.80;99.90;;;;;;5010349;28;20967;-70
2023/10/25 08:16:08;;;;;;;7.22;2.10;;;18.60;99.90;;;;;;5010162;28;20480;-70
2023/10/25 08:18:34;;;;;;;5.90;1.80;;;19.00;99.90;;;;;;5008703;28;20769;-69
2023/10/25 08:21:00;;;;;;;6.57;2.10;;;19.70;99.90;;;;;;5009809;28;20389;-70
2023/10/25 08:23:26;;;;;;;7.50;1.80;;;19.40;99.90;;;;;;5008393;28;20466;-70
2023/10/25 08:25:51;;;;;;;5.85;1.80;;;20.10;99.90;;;;;;5009091;28;20420;-70
2023/10/25 08:28:18;;;;;;;7.50;2.08;;;20.30;99.90;;;;;;5008919;28;20480;-70
2023/10/25 08:30:44;;;;;;;7.72;1.80;;;19.40;99.90;;;;;;5009504;28;20397;-70
2023/10/25 08:33:10;;;;;;;5.68;1.90;;;18.40;99.90;;;;;;5009883;28;20860;-70
2023/10/25 08:35:37;;;;;;;6.40;2.30;;;17.70;99.90;;;;;;5009663;28;20424;-70
2023/10/25 08:38:03;;;;;;;6.00;1.88;;;17.10;99.90;;;;;;5010209;28;20472;-70
2023/10/25 08:40:29;;;;;;;7.40;1.77;;;16.70;99.90;;;;;;5010223;28;20392;-70
2023/10/25 08:42:58;;;;;;;16.63;2.15;;;16.30;99.90;;;;;;5013320;28;20405;-70
2023/10/25 08:45:25;;;;;;;6.65;2.35;;;16.10;99.90;;;;;;5013158;28;20424;-69
2023/10/25 08:47:51;;;;;;;5.90;1.88;;;15.70;99.90;;;;;;5012978;28;20443;-69
2023/10/25 08:50:20;;;;;;;6.70;2.17;;;15.40;99.90;;;;;;5011342;28;20412;-69
2023/10/25 08:52:51;;;;;;;5.78;1.40;;;15.10;99.90;;;;;;5013318;28;20408;-70
2023/10/25 08:55:19;;;;;;;6.72;1.80;;;14.90;99.90;;;;;;5012965;28;20496;-70
2023/10/25 08:57:45;;;;;;;7.00;1.95;;;14.80;99.90;;;;;;5012511;28;20381;-69
2023/10/25 09:00:12;;;;;;;7.40;2.10;;;14.50;99.90;;;;;;5012780;28;20395;-69
2023/10/25 09:02:38;;;;;;;6.97;2.10;;;14.20;99.90;;;;;;5012793;28;20384;-69
2023/10/25 09:05:08;;;;;;;6.43;2.13;;;14.30;99.90;;;;;;5011658;28;20845;-69
2023/10/25 09:07:35;;;;;;;7.27;1.97;;;14.20;99.90;;;;;;5011920;28;20758;-70
2023/10/25 09:10:05;;;;;;;6.65;2.40;;;14.30;99.90;;;;;;5012543;28;20464;-70
2023/10/25 09:12:32;;;;;;;7.35;2.00;;;14.40;99.90;;;;;;5013063;28;20400;-69
2023/10/25 09:14:58;;;;;;;6.10;1.70;;;14.40;99.90;;;;;;5013017;28;20822;-69
2023/10/25 09:17:23;;;;;;;5.63;1.60;;;14.30;99.90;;;;;;5014088;28;20404;-69
2023/10/25 09:19:50;;;;;;;6.10;1.75;;;14.20;99.90;;;;;;5017096;28;20856;-69
2023/10/25 09:22:27;;;;;;;6.95;2.13;;;14.10;99.90;;;;;;5015592;28;20436;-68
2023/10/25 09:24:56;;;;;;;10.23;1.98;;;14.20;99.90;;;;;;5013338;28;20766;-69
2023/10/25 09:27:23;;;;;;;5.45;1.58;;;14.20;99.90;;;;;;5010857;28;20990;-69
2023/10/25 09:29:52;;;;;;;16.52;2.45;;;14.10;99.90;;;;;;5012053;28;20475;-69
2023/10/25 09:32:19;;;;;;;6.40;1.70;;;14.00;1.00;;;;;;5012094;28;20764;-69
2023/10/25 09:34:46;;;;;;;6.55;1.90;;;13.70;1.00;;;;;;5011992;28;20400;-69
2023/10/25 09:37:12;;;;;;;6.70;1.80;;;13.80;1.00;;;;;;5011646;28;20393;-69
2023/10/25 09:39:38;;;;;;;6.93;1.83;;;13.70;1.00;;;;;;5010674;28;20822;-69
2023/10/25 09:42:15;;;;;;;5.70;1.40;;;13.70;1.00;;;;;;5026794;28;20497;-69
2023/10/25 09:44:47;;;;;;;7.88;2.20;;;13.80;1.00;;;;;;5011262;28;20392;-70
2023/10/25 09:47:16;;;;;;;6.10;1.63;;;13.80;1.00;;;;;;5011551;28;20388;-69
2023/10/25 09:49:43;;;;;;;5.40;1.70;;;13.80;1.00;;;;;;5011752;28;20388;-69
2023/10/25 09:52:19;;;;;;;6.15;1.70;;;13.80;1.00;;;;;;5011150;28;20392;-69
2023/10/25 09:54:58;;;;;;;6.70;1.90;;;13.80;1.00;;;;;;5011471;28;20424;-69
2023/10/25 09:57:28;;;;;;;6.15;1.80;;;13.70;1.00;;;;;;5011311;28;20392;-69
2023/10/25 09:59:56;;;;;;;7.82;2.03;;;13.60;1.00;;;;;;5011772;28;20904;-70
2023/10/25 10:02:46;;;;;;;5.68;1.52;;;13.60;1.00;;;;;;5009832;28;20927;-69
2023/10/25 10:05:29;;;;;;;6.60;1.58;;;13.70;1.00;;;;;;5011383;28;20404;-69
2023/10/25 10:08:05;;;;;;;6.00;1.80;;;13.70;1.00;;;;;;5011300;28;20447;-74
2023/10/25 10:10:39;;;;;;;5.20;1.60;;;13.70;1.00;;;;;;5011790;28;20388;-69
2023/10/25 10:13:15;;;;;;;5.22;1.75;;;13.70;1.00;;;;;;5010881;28;20404;-69
2023/10/25 10:16:01;;;;;;;5.90;1.98;;;13.70;1.00;;;;;;5010704;28;20384;-69
2023/10/25 10:18:37;;;;;;;5.57;1.57;;;13.50;1.00;;;;;;5011328;28;20396;-69
2023/10/25 10:21:05;;;;;;;5.20;1.50;;;13.60;1.00;;;;;;5011410;28;20404;-68
2023/10/25 10:23:40;;;;;;;6.15;2.05;;;13.70;1.00;;;;;;5011355;28;20380;-69
2023/10/25 10:26:08;;;;;;;6.32;1.83;;;13.80;1.00;;;;;;5010931;28;20422;-69
2023/10/25 10:28:39;;;;;;;5.90;2.20;;;13.80;1.00;;;;;;5009973;28;20400;-69
2023/10/25 10:31:05;;;;;;;7.32;2.05;;;13.80;1.00;;;;;;5010425;28;20399;-69
2023/10/25 10:33:40;;;;;;;6.70;1.80;;;13.90;1.00;;;;;;5009977;28;20480;-69
2023/10/25 10:36:07;;;;;;;6.00;1.80;;;14.00;1.00;;;;;;5010567;28;20447;-69
2023/10/25 10:39:11;;;;;;;5.43;1.60;;;14.20;1.00;;;;;;5011761;28;20764;-69
2023/10/25 10:41:37;;;;;;;5.70;1.85;;;14.20;1.00;;;;;;5009745;28;20464;-69
2023/10/25 10:44:03;;;;;;;6.22;2.00;;;14.20;1.00;;;;;;5010006;28;20401;-69
2023/10/25 10:46:31;;;;;;;6.83;1.80;;;14.10;1.00;;;;;;5009305;28;20420;-69
2023/10/25 10:49:01;;;;;;;6.57;1.80;;;14.10;1.00;;;;;;5009510;28;20396;-69
2023/10/25 10:51:30;;;;;;;5.57;1.67;;;14.20;1.00;;;;;;5010881;28;20472;-69
2023/10/25 10:53:55;;;;;;;6.30;1.58;;;14.30;1.00;;;;;;5009221;28;20423;-69
2023/10/25 10:56:22;;;;;;;5.53;1.97;;;14.40;1.00;;;;;;5009383;28;20401;-69
2023/10/25 10:58:48;;;;;;;6.35;2.22;;;14.50;1.00;;;;;;5008768;28;20908;-69
2023/10/25 11:01:13;;;;;;;6.20;2.23;;;14.50;1.00;;;;;;5010753;28;20393;-69
2023/10/25 11:03:40;;;;;;;6.00;2.30;;;14.60;1.00;;;;;;5008662;28;20460;-69
2023/10/25 11:06:05;;;;;;;6.77;2.40;;;14.60;1.00;;;;;;5010305;28;20416;-69
2023/10/25 11:08:32;;;;;;;5.80;1.90;;;14.70;1.00;;;;;;5010813;28;20404;-69
2023/10/25 11:10:58;;;;;;;6.57;2.35;;;14.70;1.00;;;;;;5010428;28;20404;-69
2023/10/25 11:13:24;;;;;;;6.90;2.20;;;14.60;1.00;;;;;;5009991;28;20451;-70
2023/10/25 11:16:06;;;;;;;5.03;1.77;;;14.70;1.00;;;;;;5010870;28;20397;-69
2023/10/25 11:18:32;;;;;;;7.97;2.15;;;14.70;1.00;;;;;;5010833;28;20439;-69
2023/10/25 11:21:00;;;;;;;5.60;1.80;;;14.80;1.00;;;;;;5010196;28;20393;-69
2023/10/25 11:23:25;;;;;;;5.20;1.60;;;14.70;1.00;;;;;;5008689;28;20951;-69
2023/10/25 11:25:51;;;;;;;5.00;1.60;;;14.70;1.00;;;;;;5016184;28;20561;-69
2023/10/25 11:28:20;;;;;;;5.20;1.50;;;14.70;1.00;;;;;;5028054;28;20388;-70
2023/10/25 11:30:48;;;;;;;5.57;1.42;;;14.80;1.00;;;;;;5021081;28;20407;-69
2023/10/25 11:33:15;;;;;;;5.45;1.60;;;15.00;1.00;;;;;;5029574;28;20447;-70
2023/10/25 11:35:44;;;;;;;5.82;1.90;;;15.30;1.00;;;;;;5024882;28;20791;-70
2023/10/25 11:38:11;;;;;;;6.45;1.50;;;15.70;1.00;;;;;;5029074;28;20395;-70
2023/10/25 11:40:39;;;;;;;4.50;1.05;;;15.80;1.00;;;;;;5013876;28;20452;-69
2023/10/25 11:43:05;;;;;;;7.00;1.80;;;15.80;1.00;;;;;;5009921;28;20416;-69
2023/10/25 11:45:33;;;;;;;5.75;1.58;;;15.90;1.00;;;;;;5022113;28;20427;-69
2023/10/25 11:47:58;;;;;;;5.70;1.50;;;16.00;1.00;;;;;;5028224;28;20427;-69
2023/10/25 11:50:24;;;;;;;6.47;1.50;;;15.90;1.00;;;;;;5029174;28;20438;-68
2023/10/25 11:52:49;;;;;;;6.68;1.33;;;16.00;1.00;;;;;;5021749;28;20962;-69
2023/10/25 11:55:15;;;;;;;6.90;1.38;;;16.10;1.00;;;;;;5009875;28;20424;-70
2023/10/25 11:57:42;;;;;;;4.90;1.30;;;16.20;1.00;;;;;;5009944;28;20451;-70
2023/10/25 12:00:08;;;;;;;4.97;1.20;;;16.50;1.00;;;;;;5009985;28;20408;-69
2023/10/25 12:02:35;;;;;;;5.22;1.05;;;16.60;1.00;;;;;;5009365;28;20928;-69
2023/10/25 12:05:04;;;;;;;5.00;1.30;;;16.70;1.00;;;;;;5008928;28;20457;-69
2023/10/25 12:07:31;;;;;;;4.90;1.10;;;16.90;1.00;;;;;;5010210;28;20396;-69
2023/10/25 12:09:57;;;;;;;5.90;1.20;;;16.90;1.00;;;;;;5010769;28;20418;-69
2023/10/25 12:12:23;;;;;;;4.90;0.90;;;16.90;1.00;;;;;;5030159;28;20391;-68
2023/10/25 12:14:51;;;;;;;5.40;0.95;;;16.80;1.00;;;;;;5026566;28;20416;-69
2023/10/25 12:17:17;;;;;;;4.57;1.17;;;16.60;1.00;;;;;;5015332;28;21817;-69
2023/10/25 12:19:43;;;;;;;4.80;1.02;;;16.30;1.00;;;;;;5032957;28;20879;-69
2023/10/25 12:22:10;;;;;;;4.20;0.60;;;16.20;1.00;;;;;;5027981;28;20510;-69
2023/10/25 12:24:37;;;;;;;4.18;0.52;;;16.10;1.00;;;;;;5024444;28;20764;-69
2023/10/25 12:27:04;;;;;;;4.65;0.90;;;16.10;1.00;;;;;;5029086;28;20422;-69
2023/10/25 12:29:30;;;;;;;5.50;0.90;;;16.10;1.00;;;;;;5014552;28;20397;-69
2023/10/25 12:31:55;;;;;;;4.82;0.75;;;16.10;1.00;;;;;;5031692;28;20449;-68
2023/10/25 12:34:21;;;;;;;4.40;0.90;;;16.30;1.00;;;;;;5032538;28;20387;-69
2023/10/25 12:36:47;;;;;;;4.40;0.67;;;16.40;1.00;;;;;;5017288;28;20396;-69
2023/10/25 12:39:13;;;;;;;4.30;0.80;;;16.50;1.00;;;;;;5012845;28;20824;-69
2023/10/25 12:41:38;;;;;;;4.30;0.70;;;16.70;1.00;;;;;;5011530;28;20408;-68
2023/10/25 12:44:08;;;;;;;5.30;0.80;;;16.80;1.00;;;;;;5012224;28;20385;-69
2023/10/25 12:46:34;;;;;;;4.10;0.60;;;16.80;1.00;;;;;;5012935;28;20448;-69
2023/10/25 12:48:59;;;;;;;4.43;0.68;;;16.70;1.00;;;;;;5028313;28;20871;-69
2023/10/25 12:51:25;;;;;;;4.80;0.70;;;16.70;1.00;;;;;;5032203;28;20403;-69
2023/10/25 12:53:50;;;;;;;4.40;0.73;;;16.70;1.00;;;;;;5032091;28;20433;-69
2023/10/25 12:56:16;;;;;;;4.30;0.60;;;16.70;1.00;;;;;;5032036;28;20383;-69